createdAt,value
2023-05-22T04:02:33.893Z,13.96
2023-05-22T04:05:00.746Z,14.08
2023-05-22T04:07:27.654Z,14.23
2023-05-22T04:09:54.273Z,14.43
2023-05-22T04:12:20.950Z,14.61
2023-05-22T04:14:47.379Z,14.66
2023-05-22T04:17:13.904Z,14.83
2023-05-22T04:19:40.550Z,14.96
2023-05-22T04:22:07.208Z,15.14
2023-05-22T04:24:34.060Z,15.27
2023-05-22T04:27:00.739Z,15.37
2023-05-22T04:29:28.661Z,15.53
2023-05-22T04:31:55.610Z,15.74
2023-05-22T04:34:22.207Z,15.96
2023-05-22T04:36:48.831Z,16.17
2023-05-22T04:39:15.480Z,16.44
2023-05-22T04:41:42.149Z,16.58
2023-05-22T04:44:08.715Z,16.85
2023-05-22T04:46:35.914Z,17.18
2023-05-22T04:49:03.382Z,17.30
2023-05-22T04:51:31.351Z,17.71
2023-05-22T04:53:58.680Z,17.85
2023-05-22T04:56:35.562Z,18.16
2023-05-22T04:59:04.867Z,18.05
2023-05-22T05:01:33.261Z,18.01
2023-05-22T05:04:00.770Z,18.23
2023-05-22T05:06:27.508Z,18.17
2023-05-22T05:08:54.187Z,18.19
2023-05-22T05:11:22.539Z,18.72
2023-05-22T05:13:49.089Z,19.08
2023-05-22T05:16:16.170Z,19.33
2023-05-22T05:18:42.875Z,19.01
2023-05-22T05:21:09.748Z,19.03
2023-05-22T05:23:36.328Z,19.37
2023-05-22T05:26:02.891Z,19.70
2023-05-22T05:28:29.390Z,20.02
2023-05-22T05:30:55.977Z,20.28
2023-05-22T05:33:22.531Z,20.43
2023-05-22T05:35:50.449Z,20.62
2023-05-22T05:38:17.455Z,20.28
2023-05-22T05:40:45.097Z,20.08
2023-05-22T05:43:14.005Z,20.49
2023-05-22T05:45:43.851Z,20.73
2023-05-22T05:48:11.978Z,20.30
2023-05-22T05:50:38.925Z,20.52
2023-05-22T05:53:06.261Z,20.53
2023-05-22T05:55:34.562Z,20.18
2023-05-22T05:58:01.200Z,20.12
2023-05-22T06:00:28.334Z,20.23
2023-05-22T06:02:55.166Z,20.29
2023-05-22T06:05:22.868Z,20.14
2023-05-22T06:07:49.739Z,20.38
2023-05-22T06:10:16.278Z,20.11
2023-05-22T06:12:42.775Z,20.05
2023-05-22T06:15:09.392Z,20.21
2023-05-22T06:17:37.667Z,20.02
2023-05-22T06:20:07.059Z,20.01
2023-05-22T06:22:33.645Z,20.15
2023-05-22T06:25:00.217Z,19.99
2023-05-22T06:27:27.842Z,20.27
2023-05-22T06:29:55.627Z,20.21
2023-05-22T06:32:22.994Z,20.70
2023-05-22T06:34:49.875Z,21.51
2023-05-22T06:37:17.190Z,21.78
2023-05-22T06:39:43.785Z,22.43
2023-05-22T06:42:10.604Z,21.62
2023-05-22T06:44:37.013Z,22.71
2023-05-22T06:47:03.637Z,22.37
2023-05-22T06:49:30.103Z,22.31
2023-05-22T06:51:57.565Z,22.65
2023-05-22T06:54:24.624Z,22.43
2023-05-22T06:56:51.113Z,22.04
2023-05-22T06:59:18.830Z,22.25
2023-05-22T07:01:46.169Z,21.91
2023-05-22T07:04:13.531Z,22.26
2023-05-22T07:06:43.325Z,21.75
2023-05-22T07:09:11.233Z,21.87
2023-05-22T07:11:37.966Z,22.16
2023-05-22T07:14:04.488Z,21.82
2023-05-22T07:16:34.004Z,22.32
2023-05-22T07:19:02.100Z,22.56
2023-05-22T07:21:30.646Z,22.73
2023-05-22T07:23:57.450Z,22.40
2023-05-22T07:26:26.454Z,22.46
2023-05-22T07:28:52.966Z,21.99
2023-05-22T07:31:19.428Z,22.74
2023-05-22T07:33:45.953Z,23.08
2023-05-22T07:36:12.586Z,23.75
2023-05-22T07:38:39.115Z,22.98
2023-05-22T07:41:05.612Z,23.47
2023-05-22T07:43:32.486Z,23.26
2023-05-22T07:45:58.972Z,23.06
2023-05-22T07:48:25.522Z,23.36
2023-05-22T07:50:51.901Z,24.28
2023-05-22T07:53:18.841Z,24.52
2023-05-22T07:55:45.325Z,24.00
2023-05-22T07:58:11.868Z,23.31
2023-05-22T08:00:38.399Z,23.55
2023-05-22T08:03:05.095Z,22.94
2023-05-22T08:05:31.819Z,23.20
2023-05-22T08:07:58.366Z,23.50
2023-05-22T08:10:26.453Z,22.74
2023-05-22T08:12:54.431Z,22.68
2023-05-22T08:15:21.055Z,22.29
2023-05-22T08:17:47.552Z,22.35
2023-05-22T08:20:14.633Z,22.55
2023-05-22T08:22:41.859Z,22.71
2023-05-22T08:25:09.256Z,22.71
2023-05-22T08:27:36.080Z,22.63
2023-05-22T08:30:04.536Z,22.69
2023-05-22T08:32:31.371Z,22.88
2023-05-22T08:34:59.522Z,22.65
2023-05-22T08:37:26.353Z,22.36
2023-05-22T08:39:52.917Z,22.87
2023-05-22T08:42:19.897Z,22.88
2023-05-22T08:44:47.546Z,22.43
2023-05-22T08:47:15.785Z,22.36
2023-05-22T08:49:43.154Z,22.51
2023-05-22T08:52:16.104Z,22.66
2023-05-22T08:54:44.625Z,22.85
2023-05-22T08:57:11.514Z,22.83
2023-05-22T08:59:39.497Z,22.74
2023-05-22T09:02:07.167Z,22.62
2023-05-22T09:04:33.701Z,22.45
2023-05-22T09:07:05.811Z,22.55
2023-05-22T09:09:37.035Z,22.35
2023-05-22T09:12:09.278Z,22.64
2023-05-22T09:14:45.306Z,22.87
2023-05-22T09:17:15.439Z,22.85
2023-05-22T09:19:46.012Z,23.26
2023-05-22T09:22:13.654Z,24.04
2023-05-22T09:24:46.025Z,23.43
2023-05-22T09:27:12.776Z,23.55
2023-05-22T09:29:52.823Z,23.41
2023-05-22T09:32:20.036Z,23.45
2023-05-22T09:34:47.532Z,23.42
2023-05-22T09:37:17.947Z,23.21
2023-05-22T09:39:51.622Z,23.22
2023-05-22T09:42:18.327Z,22.92
2023-05-22T09:44:49.434Z,23.22
2023-05-22T09:47:15.981Z,23.24
2023-05-22T09:49:43.777Z,23.15
2023-05-22T09:52:15.167Z,23.58
2023-05-22T09:54:50.012Z,23.71
2023-05-22T09:57:18.724Z,23.82
2023-05-22T09:59:54.273Z,23.85
2023-05-22T10:02:25.046Z,23.74
2023-05-22T10:04:52.810Z,23.90
2023-05-22T10:07:31.980Z,23.78
2023-05-22T10:10:05.338Z,23.97
2023-05-22T10:12:33.985Z,24.47
2023-05-22T10:15:01.479Z,24.10
2023-05-22T10:17:28.908Z,24.00
2023-05-22T10:19:57.569Z,23.41
2023-05-22T10:22:26.614Z,23.33
2023-05-22T10:24:54.512Z,23.32
2023-05-22T10:27:20.980Z,23.33
2023-05-22T10:29:52.982Z,23.23
2023-05-22T10:32:49.034Z,23.05
2023-05-22T10:35:39.851Z,23.33
2023-05-22T10:38:26.189Z,23.08
2023-05-22T10:40:53.241Z,22.93
2023-05-22T10:43:21.437Z,22.83
2023-05-22T10:45:48.259Z,22.93
2023-05-22T10:48:14.849Z,22.75
2023-05-22T10:50:51.127Z,23.40
2023-05-22T10:53:25.779Z,24.29
2023-05-22T10:55:53.963Z,24.27
2023-05-22T10:58:28.103Z,24.21
2023-05-22T11:01:14.644Z,24.23
2023-05-22T11:03:57.626Z,23.82
2023-05-22T11:06:47.243Z,23.91
2023-05-22T11:09:18.929Z,24.00
2023-05-22T11:11:46.885Z,24.06
2023-05-22T11:14:16.823Z,24.33
2023-05-22T11:16:43.280Z,24.04
2023-05-22T11:19:22.608Z,24.81
2023-05-22T11:21:50.165Z,24.34
2023-05-22T11:24:18.314Z,24.07
2023-05-22T11:27:01.060Z,24.00
2023-05-22T11:29:29.314Z,24.15
2023-05-22T11:31:57.449Z,23.89
2023-05-22T11:34:25.075Z,24.08
2023-05-22T11:37:00.651Z,24.00
2023-05-22T11:39:27.744Z,24.22
2023-05-22T11:41:54.671Z,24.44
2023-05-22T11:44:21.347Z,24.17
2023-05-22T11:46:48.181Z,24.36
2023-05-22T11:49:14.712Z,24.55
2023-05-22T11:51:41.318Z,25.19
2023-05-22T11:54:07.891Z,25.11
2023-05-22T11:56:34.510Z,24.93
2023-05-22T11:59:01.436Z,24.75
2023-05-22T12:01:27.984Z,24.92
2023-05-22T12:03:55.031Z,25.17
2023-05-22T12:06:21.770Z,24.86
2023-05-22T12:08:48.324Z,25.47
2023-05-22T12:11:15.012Z,24.72
2023-05-22T12:13:41.601Z,24.80
2023-05-22T12:16:25.317Z,24.39
2023-05-22T12:18:55.102Z,24.55
2023-05-22T12:21:21.950Z,24.52
2023-05-22T12:23:50.115Z,24.90
2023-05-22T12:26:17.143Z,24.75
2023-05-22T12:28:43.968Z,25.11
2023-05-22T12:31:10.542Z,24.74
2023-05-22T12:33:39.893Z,24.68
2023-05-22T12:36:10.400Z,24.04
2023-05-22T12:38:39.263Z,24.62
2023-05-22T12:41:05.926Z,24.99
2023-05-22T12:43:33.025Z,25.26
2023-05-22T12:46:01.765Z,24.96
2023-05-22T12:48:29.428Z,25.22
2023-05-22T12:50:56.081Z,24.68
2023-05-22T12:53:22.655Z,25.17
2023-05-22T12:55:49.173Z,24.39
2023-05-22T12:58:15.906Z,24.20
2023-05-22T13:00:42.517Z,24.56
2023-05-22T13:03:09.478Z,24.69
2023-05-22T13:05:36.017Z,24.40
2023-05-22T13:08:02.482Z,24.33
2023-05-22T13:10:29.319Z,23.94
2023-05-22T13:12:55.932Z,24.46
2023-05-22T13:15:22.681Z,24.30
2023-05-22T13:17:49.264Z,24.34
2023-05-22T13:20:15.955Z,24.21
2023-05-22T13:22:42.405Z,24.51
2023-05-22T13:25:09.176Z,24.21
2023-05-22T13:27:35.847Z,23.92
2023-05-22T13:30:02.538Z,23.84
2023-05-22T13:32:29.173Z,24.24
2023-05-22T13:34:55.767Z,24.38
2023-05-22T13:37:22.433Z,24.52
2023-05-22T13:39:49.140Z,24.51
2023-05-22T13:42:15.662Z,24.75
2023-05-22T13:44:42.262Z,24.53
2023-05-22T13:47:08.895Z,24.73
2023-05-22T13:49:35.490Z,24.72
2023-05-22T13:52:02.031Z,24.77
2023-05-22T13:54:28.550Z,24.56
2023-05-22T13:56:55.067Z,24.65
2023-05-22T13:59:21.653Z,24.61
2023-05-22T14:01:48.251Z,24.80
2023-05-22T14:04:14.781Z,24.59
2023-05-22T14:06:43.024Z,24.82
2023-05-22T14:09:09.692Z,24.67
2023-05-22T14:11:36.172Z,24.39
2023-05-22T14:14:02.668Z,24.51
2023-05-22T14:16:29.224Z,24.28
2023-05-22T14:18:56.096Z,24.32
2023-05-22T14:21:22.761Z,24.16
2023-05-22T14:23:49.183Z,24.01
2023-05-22T14:26:15.721Z,24.15
2023-05-22T14:28:42.607Z,23.83
2023-05-22T14:31:09.312Z,23.85
2023-05-22T14:33:36.010Z,23.94
2023-05-22T14:36:02.772Z,23.90
2023-05-22T14:38:33.016Z,23.67
2023-05-22T14:41:00.445Z,24.14
2023-05-22T14:43:27.106Z,23.60
2023-05-22T14:45:55.007Z,23.10
2023-05-22T14:48:26.146Z,23.27
2023-05-22T14:50:55.433Z,23.41
2023-05-22T14:53:22.139Z,23.27
2023-05-22T14:55:48.751Z,23.06
2023-05-22T14:58:15.219Z,23.37
2023-05-22T15:00:46.152Z,23.09
2023-05-22T15:03:12.848Z,23.54
2023-05-22T15:05:39.758Z,23.69
2023-05-22T15:08:06.539Z,23.36
2023-05-22T15:10:32.974Z,23.84
2023-05-22T15:12:59.476Z,23.73
2023-05-22T15:15:26.054Z,23.67
2023-05-22T15:17:52.579Z,23.58
2023-05-22T15:20:19.076Z,23.53
2023-05-22T15:22:45.557Z,23.60
2023-05-22T15:25:15.300Z,23.45
2023-05-22T15:27:42.416Z,23.58
2023-05-22T15:30:09.898Z,23.30
2023-05-22T15:32:37.601Z,23.12
2023-05-22T15:35:07.088Z,23.22
2023-05-22T15:37:34.191Z,22.91
2023-05-22T15:40:02.011Z,23.24
2023-05-22T15:42:28.799Z,23.50
2023-05-22T15:44:55.445Z,23.41
2023-05-22T15:47:22.020Z,23.33
2023-05-22T15:49:48.535Z,23.28
2023-05-22T15:52:15.093Z,23.34
2023-05-22T15:54:41.696Z,23.60
2023-05-22T15:57:08.189Z,23.59
2023-05-22T15:59:34.763Z,23.80
2023-05-22T16:02:01.272Z,23.49
2023-05-22T16:04:27.840Z,23.60
2023-05-22T16:06:54.369Z,23.49
2023-05-22T16:09:20.873Z,24.04
2023-05-22T16:11:47.411Z,24.35
2023-05-22T16:14:13.899Z,24.26
2023-05-22T16:16:40.844Z,24.44
2023-05-22T16:19:07.545Z,24.41
2023-05-22T16:21:33.990Z,23.84
2023-05-22T16:24:00.657Z,23.36
2023-05-22T16:26:27.185Z,23.41
2023-05-22T16:28:53.677Z,23.44
2023-05-22T16:31:20.199Z,23.57
2023-05-22T16:33:46.676Z,23.03
2023-05-22T16:36:13.501Z,23.09
2023-05-22T16:38:39.963Z,23.60
2023-05-22T16:41:06.394Z,23.61
2023-05-22T16:43:32.848Z,23.91
2023-05-22T16:45:59.331Z,23.61
2023-05-22T16:48:25.761Z,23.40
2023-05-22T16:50:52.293Z,23.49
2023-05-22T16:53:18.899Z,23.44
2023-05-22T16:55:45.480Z,23.43
2023-05-22T16:58:13.431Z,23.23
2023-05-22T17:00:41.357Z,22.99
2023-05-22T17:03:08.569Z,23.20
2023-05-22T17:05:36.630Z,23.23
2023-05-22T17:08:03.414Z,23.23
2023-05-22T17:10:30.032Z,22.83
2023-05-22T17:12:56.636Z,23.10
2023-05-22T17:15:23.523Z,23.48
2023-05-22T17:17:50.676Z,22.66
2023-05-22T17:20:17.181Z,22.59
2023-05-22T17:22:43.835Z,22.33
2023-05-22T17:25:10.393Z,22.36
2023-05-22T17:27:37.131Z,22.54
2023-05-22T17:30:04.911Z,22.22
2023-05-22T17:32:31.476Z,22.12
2023-05-22T17:34:58.029Z,22.30
2023-05-22T17:37:24.635Z,21.74
2023-05-22T17:39:51.814Z,21.82
2023-05-22T17:42:18.237Z,21.71
2023-05-22T17:44:44.991Z,21.71
2023-05-22T17:47:13.213Z,21.37
2023-05-22T17:49:39.793Z,21.45
2023-05-22T17:52:08.598Z,21.30
2023-05-22T17:54:35.626Z,21.05
2023-05-22T17:57:04.232Z,20.94
2023-05-22T17:59:32.101Z,20.89
2023-05-22T18:01:58.759Z,20.80
2023-05-22T18:04:25.523Z,20.71
2023-05-22T18:06:52.253Z,20.65
2023-05-22T18:09:18.681Z,20.62
2023-05-22T18:11:45.109Z,20.61
2023-05-22T18:14:11.926Z,20.65
2023-05-22T18:16:38.475Z,20.37
2023-05-22T18:19:05.177Z,20.33
2023-05-22T18:21:32.272Z,20.30
2023-05-22T18:23:58.862Z,20.09
2023-05-22T18:26:26.703Z,20.14
2023-05-22T18:28:53.110Z,20.07
2023-05-22T18:31:19.589Z,20.08
2023-05-22T18:33:46.230Z,19.99
2023-05-22T18:36:13.358Z,19.85
2023-05-22T18:38:40.007Z,19.93
2023-05-22T18:41:06.619Z,19.76
2023-05-22T18:43:33.279Z,19.61
2023-05-22T18:45:59.736Z,19.66
2023-05-22T18:48:27.278Z,19.58
2023-05-22T18:50:54.220Z,19.44
2023-05-22T18:53:22.018Z,19.36
2023-05-22T18:55:48.701Z,19.30
2023-05-22T18:58:15.346Z,19.29
2023-05-22T19:00:42.094Z,19.16
2023-05-22T19:03:11.225Z,19.17
2023-05-22T19:05:37.976Z,19.05
2023-05-22T19:08:05.259Z,19.07
2023-05-22T19:10:31.715Z,19.06
2023-05-22T19:12:58.146Z,18.91
2023-05-22T19:15:25.903Z,18.92
2023-05-22T19:17:52.339Z,18.88
2023-05-22T19:20:18.768Z,18.81
2023-05-22T19:22:45.202Z,18.77
2023-05-22T19:25:11.754Z,18.76
2023-05-22T19:27:39.300Z,18.67
2023-05-22T19:30:07.187Z,18.58
2023-05-22T19:32:33.942Z,18.66
2023-05-22T19:35:00.487Z,18.55
2023-05-22T19:37:27.120Z,18.51
2023-05-22T19:39:54.203Z,18.52
2023-05-22T19:42:20.688Z,18.38
2023-05-22T19:44:47.192Z,18.35
2023-05-22T19:47:13.722Z,18.23
2023-05-22T19:49:40.182Z,18.20
2023-05-22T19:52:06.788Z,18.13
2023-05-22T19:54:33.313Z,18.14
2023-05-22T19:56:59.736Z,18.00
2023-05-22T19:59:26.976Z,18.10
